sensor_id;sensor_type;location;lat;lon;timestamp;temperature;humidity
26304;DHT22;57113;48.680;8.890;2022-09-12T00:00:48;21.50;93.00
26304;DHT22;57113;48.680;8.890;2022-09-12T00:03:14;21.50;92.90
26304;DHT22;57113;48.680;8.890;2022-09-12T00:05:45;21.50;93.00
26304;DHT22;57113;48.680;8.890;2022-09-12T00:08:11;21.50;93.00
26304;DHT22;57113;48.680;8.890;2022-09-12T00:10:41;21.50;93.00
26304;DHT22;57113;48.680;8.890;2022-09-12T00:13:08;21.50;93.00
26304;DHT22;57113;48.680;8.890;2022-09-12T00:15:41;21.40;92.90
26304;DHT22;57113;48.680;8.890;2022-09-12T00:18:14;21.50;92.90
26304;DHT22;57113;48.680;8.890;2022-09-12T00:20:42;21.50;92.90
26304;DHT22;57113;48.680;8.890;2022-09-12T00:23:07;21.40;92.90
26304;DHT22;57113;48.680;8.890;2022-09-12T00:25:33;21.40;92.90
26304;DHT22;57113;48.680;8.890;2022-09-12T00:27:59;21.40;92.80
26304;DHT22;57113;48.680;8.890;2022-09-12T00:30:24;21.40;92.80
26304;DHT22;57113;48.680;8.890;2022-09-12T00:32:50;21.40;92.80
26304;DHT22;57113;48.680;8.890;2022-09-12T00:35:16;21.40;92.80
26304;DHT22;57113;48.680;8.890;2022-09-12T00:37:41;21.40;92.80
26304;DHT22;57113;48.680;8.890;2022-09-12T00:40:07;21.40;92.80
26304;DHT22;57113;48.680;8.890;2022-09-12T00:42:33;21.40;92.80
26304;DHT22;57113;48.680;8.890;2022-09-12T00:44:58;21.40;92.80
26304;DHT22;57113;48.680;8.890;2022-09-12T00:47:27;21.40;92.80
26304;DHT22;57113;48.680;8.890;2022-09-12T00:50:04;21.40;92.80
26304;DHT22;57113;48.680;8.890;2022-09-12T00:55:12;21.40;92.70
26304;DHT22;57113;48.680;8.890;2022-09-12T00:57:44;21.40;92.70
26304;DHT22;57113;48.680;8.890;2022-09-12T01:00:16;21.40;92.70
26304;DHT22;57113;48.680;8.890;2022-09-12T01:02:45;21.40;92.70
26304;DHT22;57113;48.680;8.890;2022-09-12T01:05:13;21.40;92.70
26304;DHT22;57113;48.680;8.890;2022-09-12T01:07:40;21.30;92.70
26304;DHT22;57113;48.680;8.890;2022-09-12T01:10:07;21.30;92.70
26304;DHT22;57113;48.680;8.890;2022-09-12T01:12:34;21.30;92.70
26304;DHT22;57113;48.680;8.890;2022-09-12T01:15:02;21.30;92.70
26304;DHT22;57113;48.680;8.890;2022-09-12T01:23:56;21.30;92.70
26304;DHT22;57113;48.680;8.890;2022-09-12T01:26:12;21.30;92.70
26304;DHT22;57113;48.680;8.890;2022-09-12T01:37:20;21.30;92.70
26304;DHT22;57113;48.680;8.890;2022-09-12T01:40:02;21.30;92.70
26304;DHT22;57113;48.680;8.890;2022-09-12T01:45:19;21.30;92.60
26304;DHT22;57113;48.680;8.890;2022-09-12T01:47:52;21.30;92.60
26304;DHT22;57113;48.680;8.890;2022-09-12T01:50:27;21.30;92.60
26304;DHT22;57113;48.680;8.890;2022-09-12T01:53:13;21.30;92.60
26304;DHT22;57113;48.680;8.890;2022-09-12T01:58:13;21.20;92.60
26304;DHT22;57113;48.680;8.890;2022-09-12T02:00:51;21.20;92.60
26304;DHT22;57113;48.680;8.890;2022-09-12T02:03:24;21.20;92.60
26304;DHT22;57113;48.680;8.890;2022-09-12T02:05:56;21.20;92.60
26304;DHT22;57113;48.680;8.890;2022-09-12T02:08:28;21.20;92.50
26304;DHT22;57113;48.680;8.890;2022-09-12T02:11:09;21.20;92.90
26304;DHT22;57113;48.680;8.890;2022-09-12T02:13:53;21.20;92.60
26304;DHT22;57113;48.680;8.890;2022-09-12T02:16:36;21.20;92.50
26304;DHT22;57113;48.680;8.890;2022-09-12T02:19:11;21.20;92.60
26304;DHT22;57113;48.680;8.890;2022-09-12T02:21:39;21.20;92.50
26304;DHT22;57113;48.680;8.890;2022-09-12T02:24:07;21.20;92.50
26304;DHT22;57113;48.680;8.890;2022-09-12T02:26:55;21.20;92.50
26304;DHT22;57113;48.680;8.890;2022-09-12T02:29:22;21.20;92.50
26304;DHT22;57113;48.680;8.890;2022-09-12T02:31:53;21.20;92.50
26304;DHT22;57113;48.680;8.890;2022-09-12T02:37:24;21.10;92.40
26304;DHT22;57113;48.680;8.890;2022-09-12T02:39:54;21.10;92.40
26304;DHT22;57113;48.680;8.890;2022-09-12T02:42:21;21.10;92.40
26304;DHT22;57113;48.680;8.890;2022-09-12T02:44:48;21.10;92.40
26304;DHT22;57113;48.680;8.890;2022-09-12T02:47:19;21.10;92.40
26304;DHT22;57113;48.680;8.890;2022-09-12T02:49:47;21.10;92.40
26304;DHT22;57113;48.680;8.890;2022-09-12T02:52:13;21.10;92.40
26304;DHT22;57113;48.680;8.890;2022-09-12T02:54:39;21.10;92.40
26304;DHT22;57113;48.680;8.890;2022-09-12T02:57:15;21.10;92.40
26304;DHT22;57113;48.680;8.890;2022-09-12T02:59:41;21.10;92.70
26304;DHT22;57113;48.680;8.890;2022-09-12T03:10:31;21.00;92.30
26304;DHT22;57113;48.680;8.890;2022-09-12T03:16:03;21.10;92.30
26304;DHT22;57113;48.680;8.890;2022-09-12T03:19:02;21.10;92.30
26304;DHT22;57113;48.680;8.890;2022-09-12T03:21:39;21.10;92.20
26304;DHT22;57113;48.680;8.890;2022-09-12T03:24:16;21.10;92.20
26304;DHT22;57113;48.680;8.890;2022-09-12T03:29:31;21.10;92.20
26304;DHT22;57113;48.680;8.890;2022-09-12T03:31:57;21.00;92.20
26304;DHT22;57113;48.680;8.890;2022-09-12T03:34:25;21.00;92.20
26304;DHT22;57113;48.680;8.890;2022-09-12T03:36:52;21.00;92.20
26304;DHT22;57113;48.680;8.890;2022-09-12T03:39:20;21.00;92.20
26304;DHT22;57113;48.680;8.890;2022-09-12T03:41:46;21.00;92.20
26304;DHT22;57113;48.680;8.890;2022-09-12T03:44:11;21.10;92.10
26304;DHT22;57113;48.680;8.890;2022-09-12T03:46:37;21.00;92.10
26304;DHT22;57113;48.680;8.890;2022-09-12T03:49:03;21.00;92.10
26304;DHT22;57113;48.680;8.890;2022-09-12T03:51:29;21.00;92.40
26304;DHT22;57113;48.680;8.890;2022-09-12T03:53:55;21.00;92.10
26304;DHT22;57113;48.680;8.890;2022-09-12T03:56:20;21.00;92.10
26304;DHT22;57113;48.680;8.890;2022-09-12T03:58:46;21.00;92.10
26304;DHT22;57113;48.680;8.890;2022-09-12T04:01:16;21.00;92.00
26304;DHT22;57113;48.680;8.890;2022-09-12T04:03:44;21.00;92.00
26304;DHT22;57113;48.680;8.890;2022-09-12T04:06:12;21.00;92.00
26304;DHT22;57113;48.680;8.890;2022-09-12T04:08:39;21.00;92.00
26304;DHT22;57113;48.680;8.890;2022-09-12T04:11:07;21.00;92.00
26304;DHT22;57113;48.680;8.890;2022-09-12T04:13:34;21.00;92.00
26304;DHT22;57113;48.680;8.890;2022-09-12T04:16:00;21.00;92.00
26304;DHT22;57113;48.680;8.890;2022-09-12T04:18:26;21.00;92.00
26304;DHT22;57113;48.680;8.890;2022-09-12T04:20:52;21.00;92.00
26304;DHT22;57113;48.680;8.890;2022-09-12T04:23:18;21.00;92.00
26304;DHT22;57113;48.680;8.890;2022-09-12T04:25:44;20.90;91.90
26304;DHT22;57113;48.680;8.890;2022-09-12T04:28:17;20.90;91.90
26304;DHT22;57113;48.680;8.890;2022-09-12T04:30:42;20.90;91.90
26304;DHT22;57113;48.680;8.890;2022-09-12T04:33:08;20.90;91.90
26304;DHT22;57113;48.680;8.890;2022-09-12T04:35:34;20.90;92.00
26304;DHT22;57113;48.680;8.890;2022-09-12T04:38:00;20.90;91.90
26304;DHT22;57113;48.680;8.890;2022-09-12T04:40:28;20.90;92.00
26304;DHT22;57113;48.680;8.890;2022-09-12T04:42:54;20.90;91.90
26304;DHT22;57113;48.680;8.890;2022-09-12T04:45:20;20.90;91.90
26304;DHT22;57113;48.680;8.890;2022-09-12T04:47:46;20.80;91.90
26304;DHT22;57113;48.680;8.890;2022-09-12T04:50:12;20.80;91.90
26304;DHT22;57113;48.680;8.890;2022-09-12T04:52:39;20.80;91.90
26304;DHT22;57113;48.680;8.890;2022-09-12T04:55:06;20.80;91.90
26304;DHT22;57113;48.680;8.890;2022-09-12T04:57:32;20.80;91.90
26304;DHT22;57113;48.680;8.890;2022-09-12T04:59:58;20.80;91.90
26304;DHT22;57113;48.680;8.890;2022-09-12T05:02:24;20.80;91.90
26304;DHT22;57113;48.680;8.890;2022-09-12T05:04:50;20.80;91.90
26304;DHT22;57113;48.680;8.890;2022-09-12T05:07:17;20.80;91.90
26304;DHT22;57113;48.680;8.890;2022-09-12T05:09:43;20.80;91.90
26304;DHT22;57113;48.680;8.890;2022-09-12T05:12:10;20.80;91.80
26304;DHT22;57113;48.680;8.890;2022-09-12T05:14:36;20.80;91.80
26304;DHT22;57113;48.680;8.890;2022-09-12T05:17:02;20.80;91.80
26304;DHT22;57113;48.680;8.890;2022-09-12T05:19:29;20.80;91.80
26304;DHT22;57113;48.680;8.890;2022-09-12T05:21:55;20.80;91.80
26304;DHT22;57113;48.680;8.890;2022-09-12T05:24:21;20.80;91.80
26304;DHT22;57113;48.680;8.890;2022-09-12T05:26:46;20.70;91.80
26304;DHT22;57113;48.680;8.890;2022-09-12T05:29:12;20.70;91.90
26304;DHT22;57113;48.680;8.890;2022-09-12T05:31:37;20.80;91.90
26304;DHT22;57113;48.680;8.890;2022-09-12T05:34:03;20.70;91.80
26304;DHT22;57113;48.680;8.890;2022-09-12T05:36:31;20.70;91.80
26304;DHT22;57113;48.680;8.890;2022-09-12T05:38:59;20.70;91.80
26304;DHT22;57113;48.680;8.890;2022-09-12T05:41:26;20.70;91.80
26304;DHT22;57113;48.680;8.890;2022-09-12T05:43:58;20.70;91.80
26304;DHT22;57113;48.680;8.890;2022-09-12T05:46:27;20.70;91.80
26304;DHT22;57113;48.680;8.890;2022-09-12T05:48:54;20.70;91.80
26304;DHT22;57113;48.680;8.890;2022-09-12T05:51:32;20.70;91.80
26304;DHT22;57113;48.680;8.890;2022-09-12T05:53:59;20.60;91.80
26304;DHT22;57113;48.680;8.890;2022-09-12T05:56:31;20.60;91.80
26304;DHT22;57113;48.680;8.890;2022-09-12T05:59:00;20.60;91.80
26304;DHT22;57113;48.680;8.890;2022-09-12T06:01:27;20.60;91.80
26304;DHT22;57113;48.680;8.890;2022-09-12T06:03:55;20.60;91.80
26304;DHT22;57113;48.680;8.890;2022-09-12T06:06:23;20.60;91.80
26304;DHT22;57113;48.680;8.890;2022-09-12T06:08:51;20.60;91.80
26304;DHT22;57113;48.680;8.890;2022-09-12T06:11:19;20.60;91.80
26304;DHT22;57113;48.680;8.890;2022-09-12T06:13:46;20.60;91.80
26304;DHT22;57113;48.680;8.890;2022-09-12T06:16:16;20.60;91.80
26304;DHT22;57113;48.680;8.890;2022-09-12T06:18:50;20.60;91.80
26304;DHT22;57113;48.680;8.890;2022-09-12T06:21:16;20.60;91.80
26304;DHT22;57113;48.680;8.890;2022-09-12T06:23:42;20.70;91.80
26304;DHT22;57113;48.680;8.890;2022-09-12T06:26:09;20.70;91.80
26304;DHT22;57113;48.680;8.890;2022-09-12T06:28:37;20.70;91.80
26304;DHT22;57113;48.680;8.890;2022-09-12T06:31:08;20.70;91.80
26304;DHT22;57113;48.680;8.890;2022-09-12T06:33:36;20.70;91.80
26304;DHT22;57113;48.680;8.890;2022-09-12T06:36:07;20.70;91.80
26304;DHT22;57113;48.680;8.890;2022-09-12T06:38:34;20.70;91.80
26304;DHT22;57113;48.680;8.890;2022-09-12T06:41:02;20.70;91.80
26304;DHT22;57113;48.680;8.890;2022-09-12T06:43:29;20.70;91.80
26304;DHT22;57113;48.680;8.890;2022-09-12T06:45:55;20.70;91.80
26304;DHT22;57113;48.680;8.890;2022-09-12T06:48:21;20.70;91.90
26304;DHT22;57113;48.680;8.890;2022-09-12T06:51:01;20.70;91.90
26304;DHT22;57113;48.680;8.890;2022-09-12T06:53:28;20.70;91.80
26304;DHT22;57113;48.680;8.890;2022-09-12T06:55:56;20.70;91.90
26304;DHT22;57113;48.680;8.890;2022-09-12T06:58:22;20.80;91.90
26304;DHT22;57113;48.680;8.890;2022-09-12T07:00:47;20.70;91.40
26304;DHT22;57113;48.680;8.890;2022-09-12T07:03:13;20.40;90.90
26304;DHT22;57113;48.680;8.890;2022-09-12T07:05:38;20.30;91.20
26304;DHT22;57113;48.680;8.890;2022-09-12T07:08:04;20.30;91.40
26304;DHT22;57113;48.680;8.890;2022-09-12T07:10:30;20.40;91.50
26304;DHT22;57113;48.680;8.890;2022-09-12T07:12:56;20.50;91.40
26304;DHT22;57113;48.680;8.890;2022-09-12T07:15:21;20.50;91.40
26304;DHT22;57113;48.680;8.890;2022-09-12T07:17:47;20.60;91.30
26304;DHT22;57113;48.680;8.890;2022-09-12T07:20:12;20.70;91.30
26304;DHT22;57113;48.680;8.890;2022-09-12T07:22:38;20.70;91.20
26304;DHT22;57113;48.680;8.890;2022-09-12T07:25:04;20.80;91.20
26304;DHT22;57113;48.680;8.890;2022-09-12T07:27:29;20.80;91.20
26304;DHT22;57113;48.680;8.890;2022-09-12T07:29:55;20.80;91.20
26304;DHT22;57113;48.680;8.890;2022-09-12T07:32:20;20.90;91.20
26304;DHT22;57113;48.680;8.890;2022-09-12T07:34:47;20.90;91.20
26304;DHT22;57113;48.680;8.890;2022-09-12T07:37:14;20.90;91.10
26304;DHT22;57113;48.680;8.890;2022-09-12T07:39:39;21.00;91.20
26304;DHT22;57113;48.680;8.890;2022-09-12T07:42:05;21.00;91.20
26304;DHT22;57113;48.680;8.890;2022-09-12T07:44:31;21.10;91.20
26304;DHT22;57113;48.680;8.890;2022-09-12T07:46:57;21.10;91.20
26304;DHT22;57113;48.680;8.890;2022-09-12T07:49:22;21.10;91.10
26304;DHT22;57113;48.680;8.890;2022-09-12T07:51:48;21.10;91.10
26304;DHT22;57113;48.680;8.890;2022-09-12T07:54:14;21.10;91.20
26304;DHT22;57113;48.680;8.890;2022-09-12T07:56:40;21.20;91.20
26304;DHT22;57113;48.680;8.890;2022-09-12T07:59:09;21.20;91.20
26304;DHT22;57113;48.680;8.890;2022-09-12T08:01:34;21.20;91.20
26304;DHT22;57113;48.680;8.890;2022-09-12T08:04:00;21.20;91.20
26304;DHT22;57113;48.680;8.890;2022-09-12T08:06:27;21.20;91.20
26304;DHT22;57113;48.680;8.890;2022-09-12T08:08:56;21.20;91.30
26304;DHT22;57113;48.680;8.890;2022-09-12T08:11:24;21.20;91.20
26304;DHT22;57113;48.680;8.890;2022-09-12T08:13:50;21.20;91.30
26304;DHT22;57113;48.680;8.890;2022-09-12T08:16:21;21.30;91.30
26304;DHT22;57113;48.680;8.890;2022-09-12T08:18:48;21.30;91.30
26304;DHT22;57113;48.680;8.890;2022-09-12T08:21:15;21.30;91.30
26304;DHT22;57113;48.680;8.890;2022-09-12T08:23:42;21.30;91.60
26304;DHT22;57113;48.680;8.890;2022-09-12T08:26:09;21.30;91.30
26304;DHT22;57113;48.680;8.890;2022-09-12T08:28:36;21.40;91.30
26304;DHT22;57113;48.680;8.890;2022-09-12T08:31:03;21.40;91.60
26304;DHT22;57113;48.680;8.890;2022-09-12T08:33:30;21.40;91.20
26304;DHT22;57113;48.680;8.890;2022-09-12T08:36:19;21.40;91.30
26304;DHT22;57113;48.680;8.890;2022-09-12T08:38:48;21.40;91.30
26304;DHT22;57113;48.680;8.890;2022-09-12T08:46:31;21.40;91.30
26304;DHT22;57113;48.680;8.890;2022-09-12T08:49:00;21.50;91.30
26304;DHT22;57113;48.680;8.890;2022-09-12T08:51:27;21.50;91.30
26304;DHT22;57113;48.680;8.890;2022-09-12T08:53:55;21.40;91.60
26304;DHT22;57113;48.680;8.890;2022-09-12T08:56:22;21.30;91.90
26304;DHT22;57113;48.680;8.890;2022-09-12T08:58:48;21.30;91.90
26304;DHT22;57113;48.680;8.890;2022-09-12T09:01:30;21.40;91.90
26304;DHT22;57113;48.680;8.890;2022-09-12T09:04:22;21.50;91.80
26304;DHT22;57113;48.680;8.890;2022-09-12T09:12:25;21.70;91.50
26304;DHT22;57113;48.680;8.890;2022-09-12T09:18:28;21.80;91.80
26304;DHT22;57113;48.680;8.890;2022-09-12T09:21:02;21.90;91.50
26304;DHT22;57113;48.680;8.890;2022-09-12T09:23:32;21.90;91.40
26304;DHT22;57113;48.680;8.890;2022-09-12T09:26:22;21.90;91.40
26304;DHT22;57113;48.680;8.890;2022-09-12T09:29:00;21.90;91.40
26304;DHT22;57113;48.680;8.890;2022-09-12T09:31:34;21.90;91.40
26304;DHT22;57113;48.680;8.890;2022-09-12T09:34:13;22.00;91.30
26304;DHT22;57113;48.680;8.890;2022-09-12T09:36:49;22.10;91.30
26304;DHT22;57113;48.680;8.890;2022-09-12T09:44:41;22.20;91.20
26304;DHT22;57113;48.680;8.890;2022-09-12T09:47:09;22.20;91.20
26304;DHT22;57113;48.680;8.890;2022-09-12T09:49:36;22.20;91.20
26304;DHT22;57113;48.680;8.890;2022-09-12T09:52:04;22.20;91.20
26304;DHT22;57113;48.680;8.890;2022-09-12T09:54:45;22.20;91.20
26304;DHT22;57113;48.680;8.890;2022-09-12T09:59:58;22.30;91.20
26304;DHT22;57113;48.680;8.890;2022-09-12T10:02:24;22.30;91.20
26304;DHT22;57113;48.680;8.890;2022-09-12T10:04:57;22.30;91.20
26304;DHT22;57113;48.680;8.890;2022-09-12T10:07:24;22.40;91.20
26304;DHT22;57113;48.680;8.890;2022-09-12T10:10:14;22.40;91.20
26304;DHT22;57113;48.680;8.890;2022-09-12T10:12:41;22.40;91.10
26304;DHT22;57113;48.680;8.890;2022-09-12T10:15:20;22.40;91.10
26304;DHT22;57113;48.680;8.890;2022-09-12T10:17:48;22.40;91.10
26304;DHT22;57113;48.680;8.890;2022-09-12T10:26:07;22.50;91.00
26304;DHT22;57113;48.680;8.890;2022-09-12T10:28:48;22.60;91.00
26304;DHT22;57113;48.680;8.890;2022-09-12T10:31:22;22.60;91.00
26304;DHT22;57113;48.680;8.890;2022-09-12T10:33:57;22.60;91.00
26304;DHT22;57113;48.680;8.890;2022-09-12T10:36:24;22.60;91.00
26304;DHT22;57113;48.680;8.890;2022-09-12T10:38:56;22.60;90.90
26304;DHT22;57113;48.680;8.890;2022-09-12T10:41:23;22.60;91.00
26304;DHT22;57113;48.680;8.890;2022-09-12T10:43:49;22.60;90.90
26304;DHT22;57113;48.680;8.890;2022-09-12T10:48:48;22.70;90.90
26304;DHT22;57113;48.680;8.890;2022-09-12T10:53:50;22.70;90.90
26304;DHT22;57113;48.680;8.890;2022-09-12T10:56:18;22.70;90.80
26304;DHT22;57113;48.680;8.890;2022-09-12T11:07:09;22.80;90.70
26304;DHT22;57113;48.680;8.890;2022-09-12T11:18:14;22.90;90.70
26304;DHT22;57113;48.680;8.890;2022-09-12T11:26:19;22.90;90.60
26304;DHT22;57113;48.680;8.890;2022-09-12T11:29:09;22.90;90.60
26304;DHT22;57113;48.680;8.890;2022-09-12T11:34:59;23.00;90.60
26304;DHT22;57113;48.680;8.890;2022-09-12T11:39:53;23.00;90.60
26304;DHT22;57113;48.680;8.890;2022-09-12T11:42:28;23.00;90.50
26304;DHT22;57113;48.680;8.890;2022-09-12T11:45:14;23.00;90.50
26304;DHT22;57113;48.680;8.890;2022-09-12T11:47:45;23.00;90.40
26304;DHT22;57113;48.680;8.890;2022-09-12T11:50:24;23.00;90.40
26304;DHT22;57113;48.680;8.890;2022-09-12T11:52:53;23.00;90.40
26304;DHT22;57113;48.680;8.890;2022-09-12T11:55:28;23.10;90.50
26304;DHT22;57113;48.680;8.890;2022-09-12T11:57:57;23.10;90.40
26304;DHT22;57113;48.680;8.890;2022-09-12T12:00:52;23.00;90.40
26304;DHT22;57113;48.680;8.890;2022-09-12T12:03:42;23.10;90.30
26304;DHT22;57113;48.680;8.890;2022-09-12T12:06:17;23.10;90.30
26304;DHT22;57113;48.680;8.890;2022-09-12T12:08:47;23.10;90.40
26304;DHT22;57113;48.680;8.890;2022-09-12T12:11:42;23.10;90.30
26304;DHT22;57113;48.680;8.890;2022-09-12T12:16:44;23.10;90.30
26304;DHT22;57113;48.680;8.890;2022-09-12T12:21:45;23.10;90.20
26304;DHT22;57113;48.680;8.890;2022-09-12T12:34:38;23.20;85.40
26304;DHT22;57113;48.680;8.890;2022-09-12T12:48:09;23.30;87.20
26304;DHT22;57113;48.680;8.890;2022-09-12T12:50:35;23.30;87.40
26304;DHT22;57113;48.680;8.890;2022-09-12T13:01:14;23.30;87.80
26304;DHT22;57113;48.680;8.890;2022-09-12T13:03:46;23.30;88.00
26304;DHT22;57113;48.680;8.890;2022-09-12T13:09:20;23.30;88.40
26304;DHT22;57113;48.680;8.890;2022-09-12T13:11:56;23.30;88.40
26304;DHT22;57113;48.680;8.890;2022-09-12T13:14:51;23.30;88.50
26304;DHT22;57113;48.680;8.890;2022-09-12T13:17:28;23.30;88.40
26304;DHT22;57113;48.680;8.890;2022-09-12T13:22:44;23.30;88.50
26304;DHT22;57113;48.680;8.890;2022-09-12T13:25:31;23.30;88.50
26304;DHT22;57113;48.680;8.890;2022-09-12T13:30:39;23.30;88.60
26304;DHT22;57113;48.680;8.890;2022-09-12T13:33:33;23.30;88.60
26304;DHT22;57113;48.680;8.890;2022-09-12T13:42:03;23.40;88.70
26304;DHT22;57113;48.680;8.890;2022-09-12T13:44:09;23.40;88.70
26304;DHT22;57113;48.680;8.890;2022-09-12T13:46:35;23.40;88.70
26304;DHT22;57113;48.680;8.890;2022-09-12T13:49:21;23.40;88.60
26304;DHT22;57113;48.680;8.890;2022-09-12T13:52:00;23.40;88.70
26304;DHT22;57113;48.680;8.890;2022-09-12T13:54:28;23.40;88.70
26304;DHT22;57113;48.680;8.890;2022-09-12T13:56:54;23.40;88.70
26304;DHT22;57113;48.680;8.890;2022-09-12T13:59:21;23.40;88.70
26304;DHT22;57113;48.680;8.890;2022-09-12T14:01:47;23.40;88.80
26304;DHT22;57113;48.680;8.890;2022-09-12T14:04:24;23.40;88.90
26304;DHT22;57113;48.680;8.890;2022-09-12T14:09:41;23.40;88.90
26304;DHT22;57113;48.680;8.890;2022-09-12T14:12:25;23.40;88.90
26304;DHT22;57113;48.680;8.890;2022-09-12T14:14:54;23.40;89.70
26304;DHT22;57113;48.680;8.890;2022-09-12T14:19:54;23.40;88.90
26304;DHT22;57113;48.680;8.890;2022-09-12T14:22:24;23.40;88.90
26304;DHT22;57113;48.680;8.890;2022-09-12T14:24:54;23.40;88.90
26304;DHT22;57113;48.680;8.890;2022-09-12T14:30:30;23.40;88.90
26304;DHT22;57113;48.680;8.890;2022-09-12T14:35:41;23.40;89.00
26304;DHT22;57113;48.680;8.890;2022-09-12T14:40:47;23.40;89.10
26304;DHT22;57113;48.680;8.890;2022-09-12T14:43:29;23.40;88.90
26304;DHT22;57113;48.680;8.890;2022-09-12T14:46:16;23.40;89.10
26304;DHT22;57113;48.680;8.890;2022-09-12T14:48:52;23.40;89.10
26304;DHT22;57113;48.680;8.890;2022-09-12T14:51:24;23.40;89.10
26304;DHT22;57113;48.680;8.890;2022-09-12T14:53:50;23.40;89.20
26304;DHT22;57113;48.680;8.890;2022-09-12T14:56:16;23.40;89.20
26304;DHT22;57113;48.680;8.890;2022-09-12T14:58:45;23.40;89.30
26304;DHT22;57113;48.680;8.890;2022-09-12T15:08:52;23.40;89.90
26304;DHT22;57113;48.680;8.890;2022-09-12T15:11:18;23.40;89.30
26304;DHT22;57113;48.680;8.890;2022-09-12T15:13:43;23.30;89.20
26304;DHT22;57113;48.680;8.890;2022-09-12T15:16:10;23.40;89.40
26304;DHT22;57113;48.680;8.890;2022-09-12T15:18:36;23.40;89.50
26304;DHT22;57113;48.680;8.890;2022-09-12T15:21:05;23.40;89.50
26304;DHT22;57113;48.680;8.890;2022-09-12T15:25:59;23.40;89.60
26304;DHT22;57113;48.680;8.890;2022-09-12T15:28:25;23.30;89.60
26304;DHT22;57113;48.680;8.890;2022-09-12T15:30:53;23.30;89.60
26304;DHT22;57113;48.680;8.890;2022-09-12T15:33:21;23.30;89.50
26304;DHT22;57113;48.680;8.890;2022-09-12T15:35:47;23.30;89.70
26304;DHT22;57113;48.680;8.890;2022-09-12T15:38:13;23.30;89.70
26304;DHT22;57113;48.680;8.890;2022-09-12T15:40:39;23.30;89.70
26304;DHT22;57113;48.680;8.890;2022-09-12T15:43:05;23.30;89.70
26304;DHT22;57113;48.680;8.890;2022-09-12T15:45:33;23.30;89.60
26304;DHT22;57113;48.680;8.890;2022-09-12T15:48:00;23.30;89.50
26304;DHT22;57113;48.680;8.890;2022-09-12T15:50:27;23.30;89.70
26304;DHT22;57113;48.680;8.890;2022-09-12T15:52:53;23.30;89.80
26304;DHT22;57113;48.680;8.890;2022-09-12T15:55:20;23.30;89.90
26304;DHT22;57113;48.680;8.890;2022-09-12T15:57:47;23.30;89.70
26304;DHT22;57113;48.680;8.890;2022-09-12T16:00:14;23.20;89.80
26304;DHT22;57113;48.680;8.890;2022-09-12T16:02:40;23.20;89.80
26304;DHT22;57113;48.680;8.890;2022-09-12T16:05:12;23.30;89.70
26304;DHT22;57113;48.680;8.890;2022-09-12T16:07:38;23.30;89.80
26304;DHT22;57113;48.680;8.890;2022-09-12T16:10:04;23.30;89.70
26304;DHT22;57113;48.680;8.890;2022-09-12T16:12:30;23.30;89.70
26304;DHT22;57113;48.680;8.890;2022-09-12T16:14:56;23.30;89.90
26304;DHT22;57113;48.680;8.890;2022-09-12T16:17:22;23.20;89.80
26304;DHT22;57113;48.680;8.890;2022-09-12T16:19:47;23.30;90.00
26304;DHT22;57113;48.680;8.890;2022-09-12T16:22:13;23.20;90.00
26304;DHT22;57113;48.680;8.890;2022-09-12T16:24:38;23.20;90.30
26304;DHT22;57113;48.680;8.890;2022-09-12T16:27:05;23.30;90.00
26304;DHT22;57113;48.680;8.890;2022-09-12T16:29:30;23.30;90.00
26304;DHT22;57113;48.680;8.890;2022-09-12T16:31:56;23.20;90.00
26304;DHT22;57113;48.680;8.890;2022-09-12T16:34:22;23.20;90.00
26304;DHT22;57113;48.680;8.890;2022-09-12T16:36:47;23.20;90.00
26304;DHT22;57113;48.680;8.890;2022-09-12T16:39:13;23.20;90.00
26304;DHT22;57113;48.680;8.890;2022-09-12T16:41:39;23.20;90.00
26304;DHT22;57113;48.680;8.890;2022-09-12T16:44:07;23.20;90.00
26304;DHT22;57113;48.680;8.890;2022-09-12T16:46:32;23.20;90.00
26304;DHT22;57113;48.680;8.890;2022-09-12T16:48:59;23.20;90.00
26304;DHT22;57113;48.680;8.890;2022-09-12T16:51:27;23.20;90.00
26304;DHT22;57113;48.680;8.890;2022-09-12T16:53:55;23.20;90.00
26304;DHT22;57113;48.680;8.890;2022-09-12T16:56:21;23.20;90.10
26304;DHT22;57113;48.680;8.890;2022-09-12T16:58:47;23.20;90.00
26304;DHT22;57113;48.680;8.890;2022-09-12T17:01:18;23.30;90.10
26304;DHT22;57113;48.680;8.890;2022-09-12T17:03:44;23.20;90.00
26304;DHT22;57113;48.680;8.890;2022-09-12T17:06:15;23.30;90.10
26304;DHT22;57113;48.680;8.890;2022-09-12T17:08:46;23.30;90.10
26304;DHT22;57113;48.680;8.890;2022-09-12T17:11:19;23.20;90.00
26304;DHT22;57113;48.680;8.890;2022-09-12T17:13:49;23.30;90.10
26304;DHT22;57113;48.680;8.890;2022-09-12T17:16:14;23.30;90.10
26304;DHT22;57113;48.680;8.890;2022-09-12T17:18:40;23.30;90.10
26304;DHT22;57113;48.680;8.890;2022-09-12T17:21:07;23.30;90.10
26304;DHT22;57113;48.680;8.890;2022-09-12T17:23:33;23.30;90.10
26304;DHT22;57113;48.680;8.890;2022-09-12T17:25:59;23.30;90.10
26304;DHT22;57113;48.680;8.890;2022-09-12T17:28:25;23.30;90.50
26304;DHT22;57113;48.680;8.890;2022-09-12T17:30:58;23.30;90.10
26304;DHT22;57113;48.680;8.890;2022-09-12T17:33:24;23.30;90.10
26304;DHT22;57113;48.680;8.890;2022-09-12T17:35:50;23.20;90.20
26304;DHT22;57113;48.680;8.890;2022-09-12T17:38:17;23.20;90.20
26304;DHT22;57113;48.680;8.890;2022-09-12T17:40:42;23.20;90.20
26304;DHT22;57113;48.680;8.890;2022-09-12T17:43:10;23.30;90.20
26304;DHT22;57113;48.680;8.890;2022-09-12T17:45:36;23.30;90.20
26304;DHT22;57113;48.680;8.890;2022-09-12T17:48:03;23.30;90.20
26304;DHT22;57113;48.680;8.890;2022-09-12T17:50:33;23.40;90.20
26304;DHT22;57113;48.680;8.890;2022-09-12T17:52:59;23.40;90.20
26304;DHT22;57113;48.680;8.890;2022-09-12T17:55:25;23.40;90.10
26304;DHT22;57113;48.680;8.890;2022-09-12T17:57:50;23.40;90.10
26304;DHT22;57113;48.680;8.890;2022-09-12T18:00:16;23.40;90.10
26304;DHT22;57113;48.680;8.890;2022-09-12T18:02:42;23.40;90.10
26304;DHT22;57113;48.680;8.890;2022-09-12T18:05:09;23.40;90.10
26304;DHT22;57113;48.680;8.890;2022-09-12T18:07:35;23.40;90.20
26304;DHT22;57113;48.680;8.890;2022-09-12T18:10:01;23.40;90.20
26304;DHT22;57113;48.680;8.890;2022-09-12T18:12:27;23.40;90.20
26304;DHT22;57113;48.680;8.890;2022-09-12T18:14:52;23.40;90.20
26304;DHT22;57113;48.680;8.890;2022-09-12T18:17:18;23.40;90.20
26304;DHT22;57113;48.680;8.890;2022-09-12T18:19:44;23.40;90.20
26304;DHT22;57113;48.680;8.890;2022-09-12T18:22:10;23.40;90.20
26304;DHT22;57113;48.680;8.890;2022-09-12T18:24:36;23.40;90.20
26304;DHT22;57113;48.680;8.890;2022-09-12T18:27:02;23.30;90.20
26304;DHT22;57113;48.680;8.890;2022-09-12T18:29:28;23.40;90.30
26304;DHT22;57113;48.680;8.890;2022-09-12T18:31:54;23.30;90.20
26304;DHT22;57113;48.680;8.890;2022-09-12T18:34:20;23.30;90.30
26304;DHT22;57113;48.680;8.890;2022-09-12T18:36:47;23.30;90.30